createdAt,value
2018-11-29T00:00:19.994Z,1010.53
2018-11-29T00:01:19.971Z,1010.55
2018-11-29T00:02:19.950Z,1010.55
2018-11-29T00:03:19.931Z,1010.57
2018-11-29T00:04:19.906Z,1010.58
2018-11-29T00:05:19.875Z,1010.61
2018-11-29T00:06:19.866Z,1010.55
2018-11-29T00:07:19.831Z,1010.59
2018-11-29T00:08:19.805Z,1010.60
2018-11-29T00:09:19.780Z,1010.59
2018-11-29T00:10:19.757Z,1010.61
2018-11-29T00:11:19.741Z,1010.63
2018-11-29T00:12:19.712Z,1010.58
2018-11-29T00:13:19.688Z,1010.56
2018-11-29T00:14:19.667Z,1010.57
2018-11-29T00:15:19.642Z,1010.60
2018-11-29T00:16:19.612Z,1010.64
2018-11-29T00:17:20.189Z,1010.65
2018-11-29T00:18:19.566Z,1010.64
2018-11-29T00:19:19.543Z,1010.62
2018-11-29T00:20:19.523Z,1010.65
2018-11-29T00:21:19.495Z,1010.62
2018-11-29T00:22:19.472Z,1010.57
2018-11-29T00:23:19.453Z,1010.54
2018-11-29T00:24:19.429Z,1010.54
2018-11-29T00:25:19.399Z,1010.49
2018-11-29T00:26:19.380Z,1010.50
2018-11-29T00:27:19.353Z,1010.47
2018-11-29T00:28:19.329Z,1010.50
2018-11-29T00:29:19.306Z,1010.48
2018-11-29T00:30:19.280Z,1010.49
2018-11-29T00:31:19.262Z,1010.50
2018-11-29T00:32:19.232Z,1010.55
2018-11-29T00:33:19.211Z,1010.54
2018-11-29T00:34:19.186Z,1010.55
2018-11-29T00:35:19.174Z,1010.55
2018-11-29T00:36:19.137Z,1010.58
2018-11-29T00:37:19.124Z,1010.61
2018-11-29T00:38:19.105Z,1010.56
2018-11-29T00:39:19.067Z,1010.65
2018-11-29T00:40:19.044Z,1010.60
2018-11-29T00:41:19.020Z,1010.62
2018-11-29T00:42:18.996Z,1010.58
2018-11-29T00:43:18.973Z,1010.57
2018-11-29T00:44:18.950Z,1010.56
2018-11-29T00:45:18.926Z,1010.57
2018-11-29T00:46:18.911Z,1010.61
2018-11-29T00:47:18.881Z,1010.59
2018-11-29T00:48:18.865Z,1010.62
2018-11-29T00:49:18.829Z,1010.63
2018-11-29T00:50:18.817Z,1010.64
2018-11-29T00:51:18.785Z,1010.63
2018-11-29T00:52:18.758Z,1010.62
2018-11-29T00:53:18.736Z,1010.62
2018-11-29T00:54:18.714Z,1010.63
2018-11-29T00:55:18.691Z,1010.64
2018-11-29T00:56:18.668Z,1010.67
2018-11-29T00:57:18.641Z,1010.66
2018-11-29T00:58:18.626Z,1010.63
2018-11-29T00:59:18.595Z,1010.68
2018-11-29T01:00:18.584Z,1010.62
2018-11-29T01:01:18.547Z,1010.62
2018-11-29T01:02:18.526Z,1010.60
2018-11-29T01:03:18.499Z,1010.56
2018-11-29T01:04:18.475Z,1010.52
2018-11-29T01:05:18.452Z,1010.49
2018-11-29T01:06:18.433Z,1010.48
2018-11-29T01:07:18.406Z,1010.43
2018-11-29T01:08:18.384Z,1010.43
2018-11-29T01:09:18.859Z,1010.42
2018-11-29T01:10:18.333Z,1010.39
2018-11-29T01:11:18.314Z,1010.44
2018-11-29T01:12:18.287Z,1010.42
2018-11-29T01:13:18.272Z,1010.44
2018-11-29T01:14:18.240Z,1010.41
2018-11-29T01:15:18.217Z,1010.41
2018-11-29T01:16:18.193Z,1010.46
2018-11-29T01:17:18.169Z,1010.43
2018-11-29T01:18:18.146Z,1010.48
2018-11-29T01:19:18.127Z,1010.50
2018-11-29T01:20:18.104Z,1010.59
2018-11-29T01:21:18.076Z,1010.57
2018-11-29T01:22:18.050Z,1010.54
2018-11-29T01:23:18.033Z,1010.56
2018-11-29T01:24:18.010Z,1010.51
2018-11-29T01:25:17.986Z,1010.53
2018-11-29T01:26:17.975Z,1010.51
2018-11-29T01:27:17.933Z,1010.50
2018-11-29T01:28:17.912Z,1010.47
2018-11-29T01:29:17.888Z,1010.45
2018-11-29T01:30:17.866Z,1010.45
2018-11-29T01:31:17.842Z,1010.51
2018-11-29T01:32:17.815Z,1010.51
2018-11-29T01:33:17.793Z,1010.53
2018-11-29T01:34:17.769Z,1010.52
2018-11-29T01:35:17.747Z,1010.58
2018-11-29T01:36:17.723Z,1010.57
2018-11-29T01:37:17.699Z,1010.60
2018-11-29T01:38:17.673Z,1010.59
2018-11-29T01:39:17.651Z,1010.54
2018-11-29T01:40:17.630Z,1010.56
2018-11-29T01:41:17.605Z,1010.52
2018-11-29T01:42:17.581Z,1010.50
2018-11-29T01:43:17.565Z,1010.44
2018-11-29T01:44:17.549Z,1010.42
2018-11-29T01:45:17.510Z,1010.41
2018-11-29T01:46:17.486Z,1010.37
2018-11-29T01:47:17.469Z,1010.37
2018-11-29T01:48:17.440Z,1010.28
2018-11-29T01:49:17.416Z,1010.30
2018-11-29T01:50:17.400Z,1010.31
2018-11-29T01:51:17.369Z,1010.23
2018-11-29T01:52:17.344Z,1010.26
2018-11-29T01:53:17.326Z,1010.25
2018-11-29T01:54:17.298Z,1010.23
2018-11-29T01:55:17.274Z,1010.27
2018-11-29T01:56:17.257Z,1010.31
2018-11-29T01:57:17.233Z,1010.29
2018-11-29T01:58:17.210Z,1010.28
2018-11-29T01:59:17.181Z,1010.32
2018-11-29T02:00:17.164Z,1010.34
2018-11-29T02:01:17.134Z,1010.31
2018-11-29T02:02:17.115Z,1010.31
2018-11-29T02:03:17.087Z,1010.28
2018-11-29T02:04:17.063Z,1010.25
2018-11-29T02:05:17.040Z,1010.27
2018-11-29T02:06:17.022Z,1010.26
2018-11-29T02:07:16.992Z,1010.25
2018-11-29T02:08:16.977Z,1010.25
2018-11-29T02:09:16.946Z,1010.18
2018-11-29T02:10:16.928Z,1010.21
2018-11-29T02:11:16.898Z,1010.18
2018-11-29T02:12:16.874Z,1010.17
2018-11-29T02:13:16.851Z,1010.26
2018-11-29T02:14:16.828Z,1010.31
2018-11-29T02:15:16.807Z,1010.35
2018-11-29T02:16:16.787Z,1010.33
2018-11-29T02:17:16.756Z,1010.36
2018-11-29T02:18:16.735Z,1010.33
2018-11-29T02:19:16.714Z,1010.36
2018-11-29T02:20:16.688Z,1010.30
2018-11-29T02:21:16.663Z,1010.35
2018-11-29T02:22:16.646Z,1010.30
2018-11-29T02:23:16.617Z,1010.32
2018-11-29T02:24:16.597Z,1010.33
2018-11-29T02:25:16.574Z,1010.37
2018-11-29T02:26:16.555Z,1010.36
2018-11-29T02:27:16.525Z,1010.33
2018-11-29T02:28:16.501Z,1010.32
2018-11-29T02:29:16.479Z,1010.28
2018-11-29T02:30:16.463Z,1010.24
2018-11-29T02:31:16.431Z,1010.23
2018-11-29T02:32:16.410Z,1010.21
2018-11-29T02:33:16.385Z,1010.24
2018-11-29T02:34:16.361Z,1010.25
2018-11-29T02:35:16.339Z,1010.21
2018-11-29T02:36:16.317Z,1010.18
2018-11-29T02:37:16.300Z,1010.13
2018-11-29T02:38:16.269Z,1010.14
2018-11-29T02:39:16.251Z,1010.16
2018-11-29T02:40:16.218Z,1010.16
2018-11-29T02:41:16.197Z,1010.21
2018-11-29T02:42:16.176Z,1010.22
2018-11-29T02:43:16.152Z,1010.20
2018-11-29T02:44:16.127Z,1010.21
2018-11-29T02:45:16.104Z,1010.23
2018-11-29T02:46:16.080Z,1010.22
2018-11-29T02:47:16.071Z,1010.22
2018-11-29T02:48:16.034Z,1010.21
2018-11-29T02:49:16.009Z,1010.19
2018-11-29T02:50:15.992Z,1010.20
2018-11-29T02:51:15.968Z,1010.20
2018-11-29T02:52:15.943Z,1010.18
2018-11-29T02:53:15.918Z,1010.12
2018-11-29T02:54:15.893Z,1010.16
2018-11-29T02:55:15.870Z,1010.15
2018-11-29T02:56:15.849Z,1010.14
2018-11-29T02:57:15.823Z,1010.10
2018-11-29T02:58:15.813Z,1010.11
2018-11-29T02:59:15.779Z,1010.08
2018-11-29T03:00:15.759Z,1010.07
2018-11-29T03:01:15.735Z,1010.13
2018-11-29T03:02:15.721Z,1010.12
2018-11-29T03:03:15.691Z,1010.07
2018-11-29T03:04:15.661Z,1010.05
2018-11-29T03:05:15.637Z,1010.06
2018-11-29T03:06:15.615Z,1010.07
2018-11-29T03:07:15.593Z,1010.04
2018-11-29T03:08:15.568Z,1010.00
2018-11-29T03:09:15.545Z,1010.06
2018-11-29T03:10:15.523Z,1010.04
2018-11-29T03:11:15.498Z,1010.01
2018-11-29T03:12:15.480Z,1009.99
2018-11-29T03:13:15.453Z,1010.06
2018-11-29T03:14:15.430Z,1010.06
2018-11-29T03:15:15.420Z,1010.03
2018-11-29T03:16:15.387Z,1010.03
2018-11-29T03:17:15.363Z,1010.03
2018-11-29T03:18:15.339Z,1010.03
2018-11-29T03:19:15.314Z,1010.02
2018-11-29T03:20:15.291Z,1010.03
2018-11-29T03:21:15.268Z,1010.01
2018-11-29T03:22:15.243Z,1010.01
2018-11-29T03:23:15.226Z,1010.00
2018-11-29T03:24:15.207Z,1010.04
2018-11-29T03:25:15.176Z,1010.00
2018-11-29T03:26:15.151Z,1009.97
2018-11-29T03:27:15.128Z,1009.96
2018-11-29T03:28:15.107Z,1009.97
2018-11-29T03:29:15.082Z,1009.92
2018-11-29T03:30:15.077Z,1009.96
2018-11-29T03:31:15.047Z,1009.97
2018-11-29T03:32:15.013Z,1009.97
2018-11-29T03:33:14.986Z,1009.97
2018-11-29T03:34:14.966Z,1009.94
2018-11-29T03:35:14.948Z,1009.95
2018-11-29T03:36:14.918Z,1009.93
2018-11-29T03:37:14.902Z,1009.94
2018-11-29T03:38:14.872Z,1010.02
2018-11-29T03:39:14.849Z,1009.93
2018-11-29T03:40:14.837Z,1009.99
2018-11-29T03:41:14.804Z,1010.01
2018-11-29T03:42:14.781Z,1009.98
2018-11-29T03:43:14.757Z,1009.97
2018-11-29T03:44:14.735Z,1009.98
2018-11-29T03:45:14.716Z,1009.96
2018-11-29T03:46:14.688Z,1009.93
2018-11-29T03:47:14.668Z,1010.03
2018-11-29T03:48:14.646Z,1010.03
2018-11-29T03:49:14.619Z,1010.04
2018-11-29T03:50:14.599Z,1010.05
2018-11-29T03:51:14.573Z,1010.03
2018-11-29T03:52:14.549Z,1010.01
2018-11-29T03:53:14.536Z,1010.02
2018-11-29T03:54:14.504Z,1010.03
2018-11-29T03:55:14.487Z,1009.97
2018-11-29T03:56:14.458Z,1009.89
2018-11-29T03:57:14.435Z,1009.97
2018-11-29T03:58:14.421Z,1010.00
2018-11-29T03:59:14.387Z,1009.97
2018-11-29T04:00:14.375Z,1010.02
2018-11-29T04:01:14.349Z,1009.96
2018-11-29T04:02:14.320Z,1009.95
2018-11-29T04:03:14.299Z,1010.01
2018-11-29T04:04:14.276Z,1010.02
2018-11-29T04:05:14.252Z,1010.04
2018-11-29T04:06:14.229Z,1010.01
2018-11-29T04:07:14.205Z,1009.93
2018-11-29T04:08:14.181Z,1009.93
2018-11-29T04:09:14.163Z,1009.88
2018-11-29T04:10:14.136Z,1009.90
2018-11-29T04:11:14.111Z,1009.92
2018-11-29T04:12:14.100Z,1009.88
2018-11-29T04:13:14.066Z,1009.80
2018-11-29T04:14:14.043Z,1009.81
2018-11-29T04:15:14.029Z,1009.85
2018-11-29T04:16:13.997Z,1009.85
2018-11-29T04:17:13.978Z,1009.77
2018-11-29T04:18:13.951Z,1009.82
2018-11-29T04:19:13.929Z,1009.86
2018-11-29T04:20:13.905Z,1009.90
2018-11-29T04:21:13.881Z,1009.94
2018-11-29T04:22:13.864Z,1009.94
2018-11-29T04:23:13.838Z,1009.87
2018-11-29T04:24:13.813Z,1009.90
2018-11-29T04:25:13.792Z,1009.80
2018-11-29T04:26:13.766Z,1009.84
2018-11-29T04:27:13.749Z,1009.84
2018-11-29T04:28:13.720Z,1009.76
2018-11-29T04:29:13.699Z,1009.77
2018-11-29T04:30:13.673Z,1009.78
2018-11-29T04:31:13.658Z,1009.79
2018-11-29T04:32:13.626Z,1009.77
2018-11-29T04:33:13.604Z,1009.74
2018-11-29T04:34:13.585Z,1009.80
2018-11-29T04:35:13.572Z,1009.79
2018-11-29T04:36:13.537Z,1009.84
2018-11-29T04:37:13.512Z,1009.80
2018-11-29T04:38:13.494Z,1009.81
2018-11-29T04:39:13.468Z,1009.83
2018-11-29T04:40:13.446Z,1009.89
2018-11-29T04:41:13.427Z,1009.89
2018-11-29T04:42:13.400Z,1009.94
2018-11-29T04:43:13.376Z,1009.94
2018-11-29T04:44:13.357Z,1009.86
2018-11-29T04:45:13.334Z,1009.90
2018-11-29T04:46:13.308Z,1009.90
2018-11-29T04:47:13.283Z,1009.87
2018-11-29T04:48:13.260Z,1009.87
2018-11-29T04:49:13.244Z,1009.84
2018-11-29T04:50:13.213Z,1009.87
2018-11-29T04:51:13.191Z,1009.87
2018-11-29T04:52:13.168Z,1009.83
2018-11-29T04:53:13.146Z,1009.84
2018-11-29T04:54:13.131Z,1009.79
2018-11-29T04:55:13.101Z,1009.83
2018-11-29T04:56:13.081Z,1009.77
2018-11-29T04:57:13.052Z,1009.81
2018-11-29T04:58:13.033Z,1009.73
2018-11-29T04:59:13.009Z,1009.74
2018-11-29T05:00:12.998Z,1009.71
2018-11-29T05:01:12.963Z,1009.69
2018-11-29T05:02:12.944Z,1009.69
2018-11-29T05:03:12.924Z,1009.68
2018-11-29T05:04:12.897Z,1009.59
2018-11-29T05:05:12.881Z,1009.62
2018-11-29T05:06:12.849Z,1009.64
2018-11-29T05:07:12.829Z,1009.67
2018-11-29T05:08:12.804Z,1009.62
2018-11-29T05:09:12.784Z,1009.59
2018-11-29T05:10:12.761Z,1009.57
2018-11-29T05:11:12.740Z,1009.63
2018-11-29T05:12:12.713Z,1009.62
2018-11-29T05:13:12.706Z,1009.62
2018-11-29T05:14:12.673Z,1009.61
2018-11-29T05:15:12.643Z,1009.62
2018-11-29T05:16:12.618Z,1009.60
2018-11-29T05:17:12.597Z,1009.66
2018-11-29T05:18:12.590Z,1009.62
2018-11-29T05:19:12.549Z,1009.63
2018-11-29T05:20:12.527Z,1009.60
2018-11-29T05:21:12.504Z,1009.64
2018-11-29T05:22:12.491Z,1009.57
2018-11-29T05:23:12.461Z,1009.54
2018-11-29T05:24:12.452Z,1009.57
2018-11-29T05:25:12.448Z,1009.52
2018-11-29T05:26:12.389Z,1009.47
2018-11-29T05:27:12.367Z,1009.41
2018-11-29T05:28:12.343Z,1009.41
2018-11-29T05:29:12.320Z,1009.41
2018-11-29T05:30:12.299Z,1009.34
2018-11-29T05:31:12.276Z,1009.40
2018-11-29T05:32:12.252Z,1009.41
2018-11-29T05:33:12.228Z,1009.42
2018-11-29T05:34:12.206Z,1009.36
2018-11-29T05:35:12.183Z,1009.38
2018-11-29T05:36:12.159Z,1009.39
2018-11-29T05:37:12.137Z,1009.33
2018-11-29T05:38:12.114Z,1009.39
2018-11-29T05:39:12.090Z,1009.38
2018-11-29T05:40:12.074Z,1009.36
2018-11-29T05:41:12.043Z,1009.39
2018-11-29T05:42:12.022Z,1009.33
2018-11-29T05:43:11.997Z,1009.35
2018-11-29T05:44:11.975Z,1009.40
2018-11-29T05:45:11.953Z,1009.40
2018-11-29T05:46:11.930Z,1009.41
2018-11-29T05:47:11.914Z,1009.41
2018-11-29T05:48:11.888Z,1009.39
2018-11-29T05:49:11.859Z,1009.38
2018-11-29T05:50:11.840Z,1009.42
2018-11-29T05:51:11.816Z,1009.40
2018-11-29T05:52:11.794Z,1009.36
2018-11-29T05:53:11.768Z,1009.39
2018-11-29T05:54:11.747Z,1009.40
2018-11-29T05:55:11.734Z,1009.41
2018-11-29T05:56:11.701Z,1009.44
2018-11-29T05:57:11.681Z,1009.41
2018-11-29T05:58:11.657Z,1009.38
2018-11-29T05:59:11.633Z,1009.39
2018-11-29T06:00:11.609Z,1009.39
2018-11-29T06:01:11.592Z,1009.39
2018-11-29T06:02:11.563Z,1009.38
2018-11-29T06:03:11.582Z,1009.37
2018-11-29T06:04:11.517Z,1009.36
2018-11-29T06:05:11.494Z,1009.32
2018-11-29T06:06:11.475Z,1009.32
2018-11-29T06:07:11.455Z,1009.35
2018-11-29T06:08:11.427Z,1009.37
2018-11-29T06:09:11.403Z,1009.39
2018-11-29T06:10:11.381Z,1009.42
2018-11-29T06:11:11.370Z,1009.39
2018-11-29T06:12:11.334Z,1009.36
2018-11-29T06:13:11.310Z,1009.34
2018-11-29T06:14:11.290Z,1009.33
2018-11-29T06:15:11.267Z,1009.34
2018-11-29T06:16:11.245Z,1009.29
2018-11-29T06:17:11.222Z,1009.30
2018-11-29T06:18:11.199Z,1009.33
2018-11-29T06:19:11.186Z,1009.33
2018-11-29T06:20:11.149Z,1009.37
2018-11-29T06:21:11.126Z,1009.29
2018-11-29T06:22:11.104Z,1009.34
2018-11-29T06:23:11.082Z,1009.34
2018-11-29T06:24:13.598Z,1009.38
2018-11-29T06:25:11.045Z,1009.39
2018-11-29T06:26:11.013Z,1009.35
2018-11-29T06:27:10.991Z,1009.35
2018-11-29T06:28:10.966Z,1009.34
2018-11-29T06:29:10.950Z,1009.31
2018-11-29T06:30:10.926Z,1009.31
2018-11-29T06:31:10.898Z,1009.31
2018-11-29T06:32:10.874Z,1009.31
2018-11-29T06:33:10.857Z,1009.30
2018-11-29T06:34:10.829Z,1009.25
2018-11-29T06:35:10.806Z,1009.24
2018-11-29T06:36:10.782Z,1009.29
2018-11-29T06:37:10.765Z,1009.31
2018-11-29T06:38:10.737Z,1009.31
2018-11-29T06:39:10.715Z,1009.30
2018-11-29T06:40:10.698Z,1009.29
2018-11-29T06:41:10.669Z,1009.31
2018-11-29T06:42:10.648Z,1009.32
2018-11-29T06:43:10.627Z,1009.34
2018-11-29T06:44:10.631Z,1009.30
2018-11-29T06:45:10.580Z,1009.33
2018-11-29T06:46:10.557Z,1009.29
2018-11-29T06:47:10.535Z,1009.25
2018-11-29T06:48:10.510Z,1009.28
2018-11-29T06:49:10.489Z,1009.27
2018-11-29T06:50:10.464Z,1009.26
2018-11-29T06:51:10.443Z,1009.29
2018-11-29T06:52:10.419Z,1009.24
2018-11-29T06:53:10.395Z,1009.20
2018-11-29T06:54:10.372Z,1009.22
2018-11-29T06:55:10.354Z,1009.24
2018-11-29T06:56:10.325Z,1009.21
2018-11-29T06:57:10.304Z,1009.21
2018-11-29T06:58:10.281Z,1009.16
2018-11-29T06:59:10.270Z,1009.17
2018-11-29T07:00:10.235Z,1009.15
2018-11-29T07:01:10.211Z,1009.19
2018-11-29T07:02:10.187Z,1009.18
2018-11-29T07:03:10.165Z,1009.18
2018-11-29T07:04:10.143Z,1009.18
2018-11-29T07:05:10.119Z,1009.13
2018-11-29T07:06:10.101Z,1009.17
2018-11-29T07:07:10.073Z,1009.15
2018-11-29T07:08:10.064Z,1009.12
2018-11-29T07:09:10.030Z,1009.09
2018-11-29T07:10:10.005Z,1009.09
2018-11-29T07:11:09.983Z,1009.09
2018-11-29T07:12:09.964Z,1009.07
2018-11-29T07:13:09.985Z,1009.05
2018-11-29T07:14:09.915Z,1009.04
2018-11-29T07:15:09.890Z,1009.07
2018-11-29T07:16:09.867Z,1009.05
2018-11-29T07:17:09.849Z,1009.04
2018-11-29T07:18:09.833Z,1009.03
2018-11-29T07:19:14.907Z,1009.05
2018-11-29T07:20:09.776Z,1009.04
2018-11-29T07:21:09.757Z,1009.02
2018-11-29T07:22:09.732Z,1009.01
2018-11-29T07:23:09.711Z,1008.99
2018-11-29T07:24:09.683Z,1008.97
2018-11-29T07:25:09.660Z,1008.94
2018-11-29T07:26:09.641Z,1008.96
2018-11-29T07:27:09.618Z,1008.95
2018-11-29T07:28:09.595Z,1008.99
2018-11-29T07:29:09.576Z,1008.95
2018-11-29T07:30:09.551Z,1008.97
2018-11-29T07:31:09.530Z,1008.95
2018-11-29T07:32:09.500Z,1008.99
2018-11-29T07:33:09.477Z,1008.96
2018-11-29T07:34:09.459Z,1008.96
2018-11-29T07:35:09.432Z,1008.98
2018-11-29T07:36:09.408Z,1009.01
2018-11-29T07:37:09.385Z,1008.95
2018-11-29T07:38:09.365Z,1009.00
2018-11-29T07:39:09.340Z,1009.04
2018-11-29T07:40:10.177Z,1009.02
2018-11-29T07:41:09.295Z,1009.03
2018-11-29T07:42:09.275Z,1009.03
2018-11-29T07:43:09.249Z,1009.00
2018-11-29T07:44:09.225Z,1009.02
2018-11-29T07:45:09.204Z,1009.03
2018-11-29T07:46:09.180Z,1008.97
2018-11-29T07:47:09.164Z,1008.94
2018-11-29T07:48:09.135Z,1008.97
2018-11-29T07:49:09.119Z,1008.99
2018-11-29T07:50:09.094Z,1008.95
2018-11-29T07:51:09.066Z,1008.96
2018-11-29T07:52:09.042Z,1008.97
2018-11-29T07:53:09.020Z,1008.97
2018-11-29T07:54:08.997Z,1008.91
2018-11-29T07:55:08.975Z,1008.95
2018-11-29T07:56:08.950Z,1008.95
2018-11-29T07:57:08.939Z,1008.90
2018-11-29T07:58:08.905Z,1008.95
2018-11-29T07:59:08.889Z,1008.91
2018-11-29T08:00:08.861Z,1008.90
2018-11-29T08:01:08.838Z,1008.89
2018-11-29T08:02:08.822Z,1008.87
2018-11-29T08:03:08.793Z,1008.87
2018-11-29T08:04:08.767Z,1008.85
2018-11-29T08:05:08.746Z,1008.85
2018-11-29T08:06:08.722Z,1008.87
2018-11-29T08:07:08.700Z,1008.89
2018-11-29T08:08:08.690Z,1008.87
2018-11-29T08:09:08.657Z,1008.84
2018-11-29T08:10:08.631Z,1008.83
2018-11-29T08:11:08.610Z,1008.83
2018-11-29T08:12:08.585Z,1008.82
2018-11-29T08:13:08.565Z,1008.84
2018-11-29T08:14:08.544Z,1008.86
2018-11-29T08:15:08.518Z,1008.81
2018-11-29T08:16:08.498Z,1008.85
2018-11-29T08:17:08.474Z,1008.85
2018-11-29T08:18:08.451Z,1008.81
2018-11-29T08:19:08.427Z,1008.80
2018-11-29T08:20:08.405Z,1008.80
2018-11-29T08:21:08.381Z,1008.78
2018-11-29T08:22:08.358Z,1008.78
2018-11-29T08:23:08.337Z,1008.81
2018-11-29T08:24:08.313Z,1008.78
2018-11-29T08:25:08.289Z,1008.79
2018-11-29T08:26:08.268Z,1008.79
2018-11-29T08:27:08.245Z,1008.79
2018-11-29T08:28:08.229Z,1008.80
2018-11-29T08:29:08.201Z,1008.74
2018-11-29T08:30:08.182Z,1008.79
2018-11-29T08:31:08.155Z,1008.74
2018-11-29T08:32:08.131Z,1008.74
2018-11-29T08:33:08.114Z,1008.72
2018-11-29T08:34:08.086Z,1008.74
2018-11-29T08:35:08.064Z,1008.69
2018-11-29T08:36:08.041Z,1008.72
2018-11-29T08:37:08.018Z,1008.70
2018-11-29T08:38:08.005Z,1008.73
2018-11-29T08:39:07.976Z,1008.72
2018-11-29T08:40:07.949Z,1008.74
2018-11-29T08:41:07.931Z,1008.72
2018-11-29T08:42:07.906Z,1008.73
2018-11-29T08:43:07.888Z,1008.72
2018-11-29T08:44:07.859Z,1008.75
2018-11-29T08:45:07.837Z,1008.72
2018-11-29T08:46:07.813Z,1008.72
2018-11-29T08:47:07.791Z,1008.77
2018-11-29T08:48:07.765Z,1008.72
2018-11-29T08:49:07.749Z,1008.76
2018-11-29T08:50:07.722Z,1008.77
2018-11-29T08:51:07.703Z,1008.72
2018-11-29T08:52:07.682Z,1008.76
2018-11-29T08:53:07.652Z,1008.76
2018-11-29T08:54:07.630Z,1008.76
2018-11-29T08:55:07.612Z,1008.72
2018-11-29T08:56:07.586Z,1008.76
2018-11-29T08:57:07.564Z,1008.70
2018-11-29T08:58:07.541Z,1008.69
2018-11-29T08:59:07.518Z,1008.65
2018-11-29T09:00:07.496Z,1008.66
2018-11-29T09:01:07.473Z,1008.68
2018-11-29T09:02:07.450Z,1008.68
2018-11-29T09:03:07.428Z,1008.67
2018-11-29T09:04:07.440Z,1008.64
2018-11-29T09:05:07.380Z,1008.65
2018-11-29T09:06:07.359Z,1008.64
2018-11-29T09:07:07.334Z,1008.66
2018-11-29T09:08:07.312Z,1008.66
2018-11-29T09:09:07.288Z,1008.60
2018-11-29T09:10:07.267Z,1008.64
2018-11-29T09:11:07.254Z,1008.58
2018-11-29T09:12:07.221Z,1008.59
2018-11-29T09:13:07.198Z,1008.58
2018-11-29T09:14:07.175Z,1008.52
2018-11-29T09:15:07.157Z,1008.50
2018-11-29T09:16:07.130Z,1008.54
2018-11-29T09:17:07.108Z,1008.51
2018-11-29T09:18:07.086Z,1008.50
2018-11-29T09:19:07.065Z,1008.56
2018-11-29T09:20:07.044Z,1008.55
2018-11-29T09:21:07.017Z,1008.55
2018-11-29T09:22:06.994Z,1008.57
2018-11-29T09:23:06.973Z,1008.58
2018-11-29T09:24:06.948Z,1008.55
2018-11-29T09:25:06.926Z,1008.57
2018-11-29T09:26:06.911Z,1008.62
2018-11-29T09:27:06.879Z,1008.65
2018-11-29T09:28:06.857Z,1008.65
2018-11-29T09:29:06.835Z,1008.66
2018-11-29T09:30:06.813Z,1008.66
2018-11-29T09:31:06.791Z,1008.74
2018-11-29T09:32:06.766Z,1008.75
2018-11-29T09:33:06.745Z,1008.82
2018-11-29T09:34:06.721Z,1008.83
2018-11-29T09:35:06.708Z,1008.87
2018-11-29T09:36:06.676Z,1008.84
2018-11-29T09:37:06.675Z,1008.88
2018-11-29T09:38:06.632Z,1008.89
2018-11-29T09:39:06.615Z,1008.86
2018-11-29T09:40:06.600Z,1008.91
2018-11-29T09:41:06.564Z,1008.89
2018-11-29T09:42:06.544Z,1008.88
2018-11-29T09:43:06.521Z,1008.94
2018-11-29T09:44:06.495Z,1008.93
2018-11-29T09:45:06.478Z,1008.98
2018-11-29T09:46:06.456Z,1009.01
2018-11-29T09:47:06.431Z,1008.97
2018-11-29T09:48:06.404Z,1008.98
2018-11-29T09:49:06.383Z,1008.92
2018-11-29T09:50:06.358Z,1008.92
2018-11-29T09:51:06.336Z,1008.95
2018-11-29T09:52:06.316Z,1008.93
2018-11-29T09:53:06.297Z,1008.86
2018-11-29T09:54:06.271Z,1008.85
2018-11-29T09:55:06.247Z,1008.80
2018-11-29T09:56:06.229Z,1008.81
2018-11-29T09:57:06.204Z,1008.84
2018-11-29T09:58:06.185Z,1008.81
2018-11-29T09:59:06.157Z,1008.80
2018-11-29T10:00:06.136Z,1008.81
2018-11-29T10:01:06.114Z,1008.80
2018-11-29T10:02:06.091Z,1008.76
2018-11-29T10:03:06.066Z,1008.78
2018-11-29T10:04:06.043Z,1008.75
2018-11-29T10:05:06.021Z,1008.72
2018-11-29T10:06:06.001Z,1008.71
2018-11-29T10:07:05.978Z,1008.69
2018-11-29T10:08:11.812Z,1008.73
2018-11-29T10:09:05.933Z,1008.64
2018-11-29T10:10:05.910Z,1008.67
2018-11-29T10:11:05.887Z,1008.65
2018-11-29T10:12:05.865Z,1008.62
2018-11-29T10:13:05.841Z,1008.59
2018-11-29T10:14:05.820Z,1008.61
2018-11-29T10:15:05.807Z,1008.63
2018-11-29T10:16:05.779Z,1008.61
2018-11-29T10:17:05.755Z,1008.59
2018-11-29T10:18:05.732Z,1008.63
2018-11-29T10:19:05.711Z,1008.64
2018-11-29T10:20:05.689Z,1008.66
2018-11-29T10:21:05.666Z,1008.61
2018-11-29T10:22:05.643Z,1008.61
2018-11-29T10:23:05.631Z,1008.60
2018-11-29T10:24:05.597Z,1008.53
2018-11-29T10:25:05.584Z,1008.53
2018-11-29T10:26:05.557Z,1008.51
2018-11-29T10:27:05.532Z,1008.50
2018-11-29T10:28:05.508Z,1008.51
2018-11-29T10:29:05.486Z,1008.48
2018-11-29T10:30:05.465Z,1008.46
2018-11-29T10:31:05.441Z,1008.48
2018-11-29T10:32:05.421Z,1008.49
2018-11-29T10:33:05.395Z,1008.50
2018-11-29T10:34:05.374Z,1008.45
2018-11-29T10:35:05.354Z,1008.47
2018-11-29T10:36:05.328Z,1008.46
2018-11-29T10:37:05.306Z,1008.41
2018-11-29T10:38:05.285Z,1008.37
2018-11-29T10:39:05.263Z,1008.36
2018-11-29T10:40:05.239Z,1008.37
2018-11-29T10:41:05.216Z,1008.36
2018-11-29T10:42:05.201Z,1008.32
2018-11-29T10:43:05.176Z,1008.29
2018-11-29T10:44:05.152Z,1008.24
2018-11-29T10:45:05.129Z,1008.24
2018-11-29T10:46:05.107Z,1008.18
2018-11-29T10:47:05.085Z,1008.12
2018-11-29T10:48:05.062Z,1008.18
2018-11-29T10:49:05.040Z,1008.23
2018-11-29T10:50:05.018Z,1008.22
2018-11-29T10:51:04.998Z,1008.19
2018-11-29T10:52:04.974Z,1008.21
2018-11-29T10:53:05.040Z,1008.20
2018-11-29T10:54:04.937Z,1008.17
2018-11-29T10:55:04.906Z,1008.12
2018-11-29T10:56:04.887Z,1008.15
2018-11-29T10:57:04.868Z,1008.16
2018-11-29T10:58:04.840Z,1008.06
2018-11-29T10:59:04.817Z,1008.07
2018-11-29T11:00:04.799Z,1008.07
2018-11-29T11:01:04.784Z,1008.04
2018-11-29T11:02:04.752Z,1007.98
2018-11-29T11:03:04.728Z,1008.03
2018-11-29T11:04:04.705Z,1007.99
2018-11-29T11:05:04.684Z,1007.95
2018-11-29T11:06:04.665Z,1007.99
2018-11-29T11:07:04.640Z,1007.96
2018-11-29T11:08:08.068Z,1007.97
2018-11-29T11:09:04.593Z,1007.89
2018-11-29T11:10:04.580Z,1007.98
2018-11-29T11:11:04.551Z,1007.93
2018-11-29T11:12:04.530Z,1007.94
2018-11-29T11:13:04.509Z,1007.87
2018-11-29T11:14:04.485Z,1007.81
2018-11-29T11:15:04.462Z,1007.79
2018-11-29T11:16:04.445Z,1007.78
2018-11-29T11:17:04.459Z,1007.72
2018-11-29T11:18:04.395Z,1007.70
2018-11-29T11:19:04.374Z,1007.70
2018-11-29T11:20:04.388Z,1007.66
2018-11-29T11:21:04.331Z,1007.67
2018-11-29T11:22:04.306Z,1007.68
2018-11-29T11:23:04.284Z,1007.71
2018-11-29T11:24:04.260Z,1007.68
2018-11-29T11:25:04.239Z,1007.70
2018-11-29T11:26:04.218Z,1007.68
2018-11-29T11:27:04.199Z,1007.64
2018-11-29T11:28:04.175Z,1007.65
2018-11-29T11:29:04.174Z,1007.58
2018-11-29T11:30:04.132Z,1007.52
2018-11-29T11:31:04.110Z,1007.42
2018-11-29T11:32:04.090Z,1007.42
2018-11-29T11:33:04.064Z,1007.32
2018-11-29T11:34:04.048Z,1007.30
2018-11-29T11:35:04.018Z,1007.20
2018-11-29T11:36:03.996Z,1007.13
2018-11-29T11:37:03.982Z,1007.12
2018-11-29T11:38:03.953Z,1007.10
2018-11-29T11:39:03.933Z,1007.17
2018-11-29T11:40:03.913Z,1007.21
2018-11-29T11:41:03.893Z,1007.29
2018-11-29T11:42:03.873Z,1007.31
2018-11-29T11:43:05.338Z,1007.29
2018-11-29T11:45:03.802Z,1007.21
2018-11-29T11:46:03.775Z,1007.14
2018-11-29T11:47:03.759Z,1007.08
2018-11-29T11:48:03.794Z,1007.08
2018-11-29T11:49:03.822Z,1007.05
2018-11-29T11:50:03.689Z,1007.05
2018-11-29T11:51:03.669Z,1007.11
2018-11-29T11:52:03.644Z,1007.16
2018-11-29T11:53:03.624Z,1007.25
2018-11-29T11:55:03.577Z,1007.34
2018-11-29T11:56:03.555Z,1007.37
2018-11-29T11:57:03.532Z,1007.43
2018-11-29T11:58:03.516Z,1007.45
2018-11-29T11:59:03.489Z,1007.56
2018-11-29T12:00:03.466Z,1007.57
2018-11-29T12:01:03.445Z,1007.64
2018-11-29T12:02:03.423Z,1007.53
2018-11-29T12:03:03.402Z,1007.48
2018-11-29T12:04:03.383Z,1007.45
2018-11-29T12:05:03.359Z,1007.44
2018-11-29T12:06:03.336Z,1007.38
2018-11-29T12:07:03.324Z,1007.38